Lorient South Brittany (Bretagne Sud) Airport

LFRH · Morbihan, Bretagna, Francia

Storia di METAR LFRH · Lorient South Brittany (Bretagne Sud) Airport

Di seguito sono riportati i METAR degli ultimi giorni. Seleziona un anno per sfogliare i METAR più vecchi, dall'anno 2007 in poi.

21 luglio 2024

Tempo Codice Tempo meteorologico Temp. Vista Base nuvolosa Vento METAR/SPECI
15:30
V
21 °C 10 km+ 4.100 ft 260° 260° 14 kt METAR LFRH 211330Z AUTO 26014KT 9999 BKN041 21/14 Q1016 NOSIG
15:00
V
20 °C 10 km+ 4.100 ft 290° 290° 9 kt METAR LFRH 211300Z AUTO 29009KT 250V320 9999 FEW033 BKN041 20/13 Q1016 NOSIG
14:30
V
21 °C 10 km+ 4.200 ft 290° 290° 9 kt METAR LFRH 211230Z AUTO 29009KT 250V330 9999 SCT036 BKN042 21/13 Q1016 NOSIG
14:00
V
21 °C 10 km+ 3.800 ft 320° 320° 9 kt METAR LFRH 211200Z AUTO 32009KT 260V360 9999 BKN038 21/14 Q1015 NOSIG
13:30
V
20 °C 10 km+ 3.700 ft 330° 330° 8 kt METAR LFRH 211130Z AUTO 33008KT 260V010 9999 BKN037 20/13 Q1015 NOSIG
13:00
V
20 °C 10 km+ 3.100 ft 300° 300° 9 kt METAR LFRH 211100Z AUTO 30009KT 270V330 9999 BKN031 BKN037 20/15 Q1015 NOSIG
12:30
V
20 °C 10 km+ 3.500 ft 320° 320° 6 kt METAR LFRH 211030Z AUTO 32006KT 280V010 9999 BKN035 BKN160 20/15 Q1015 NOSIG
12:00
V
19 °C 10 km+ 3.400 ft 330° 330° 6 kt METAR LFRH 211000Z AUTO 33006KT 300V030 9999 FEW027 BKN034 19/14 Q1015 NOSIG
11:30
V
19 °C 10 km+ 3.700 ft 330° 330° 9 kt METAR LFRH 210930Z AUTO 33009KT 300V360 9999 SCT024 SCT029 OVC037 19/14 Q1014 NOSIG
11:00
M
18 °C 10 km+ 2.400 ft 330° 330° 10 kt METAR LFRH 210900Z AUTO 33010KT 290V010 9999 BKN024 BKN032 OVC041 18/14 Q1014 NOSIG
10:30
M
18 °C 10 km+ 2.000 ft 340° 340° 7 kt METAR LFRH 210830Z AUTO 34007KT 300V020 9999 FEW015 BKN020 BKN026 18/15 Q1014 NOSIG
10:00
M
17 °C 10 km+ 1.500 ft 330° 330° 8 kt METAR LFRH 210800Z AUTO 33008KT 290V360 9999 BKN015 BKN025 OVC044 17/15 Q1014 NOSIG
09:30
M
17 °C 10 km+ 2.400 ft 320° 320° 8 kt METAR LFRH 210730Z AUTO 32008KT 270V360 9999 SCT013 BKN024 OVC045 17/15 Q1013 NOSIG
09:00
V
17 °C 10 km+ 4.500 ft 310° 310° 9 kt METAR LFRH 210700Z AUTO 31009KT 280V340 9999 SCT012 BKN045 OVC062 17/16 Q1013 NOSIG
08:30
V
16 °C 10 km+ 4.400 ft 300° 300° 7 kt METAR LFRH 210630Z AUTO 30007KT 270V330 9999 FEW014 SCT021 BKN044 16/16 Q1013 NOSIG
08:00
M
16 °C 10 km+ 1.900 ft 320° 320° 6 kt METAR LFRH 210600Z AUTO 32006KT 280V010 9999 FEW010 SCT014 BKN019 16/16 Q1012 TEMPO BKN008
07:30
M
16 °C 10 km+ 1.300 ft 310° 310° 5 kt METAR LFRH 210530Z AUTO 31005KT 270V010 9999 FEW008 BKN013 BKN019 16/16 Q1012 BECMG BKN016
07:00
M
16 °C 10 km+ 1.200 ft 320° 320° 6 kt METAR LFRH 210500Z AUTO 32006KT 280V350 9999 FEW008 BKN012 BKN020 16/16 Q1011 BECMG OVC015
06:30
M
16 °C 10 km+ 1.200 ft 330° 330° 7 kt METAR LFRH 210430Z AUTO 33007KT 300V360 9999 BKN012 OVC032 16/16 Q1011 BECMG OVC015
06:00
M
17 °C 10 km+ 2.800 ft 330° 330° 6 kt METAR LFRH 210400Z AUTO 33006KT 300V010 9999 FEW011 BKN028 BKN033 17/16 Q1010 TEMPO BKN008
05:30
I
17 °C 10 km+ 900 ft 330° 330° 7 kt METAR LFRH 210330Z AUTO 33007KT 300V360 9999 -DZ FEW004 BKN009 BKN014 17/17 Q1010 NOSIG
05:00
L
17 °C 8 km 400 ft 290° 290° 3 kt METAR LFRH 210300Z AUTO 29003KT 8000 BKN004 BKN009 BKN023 17/17 Q1010 TEMPO BKN008
04:30
I
17 °C 5 km 500 ft Var Var 2 kt METAR LFRH 210230Z AUTO VRB02KT 5000 DZ BR BKN005 OVC037 17/17 Q1009 BECMG NSW
04:00
L
17 °C 3,5 km 300 ft Var Var 2 kt METAR LFRH 210200Z AUTO VRB02KT 3500 BR OVC003 17/17 Q1009 TEMPO BKN008 BECMG 9999 NSW
03:30
L
17 °C 3 km 200 ft Var Var 2 kt METAR LFRH 210130Z AUTO VRB02KT 3000 BR OVC002 17/17 Q1009 TEMPO BKN008 BECMG 9999 NSW
03:00
I
17 °C 6 km 500 ft Var Var 1 kt METAR LFRH 210100Z AUTO VRB01KT 6000 OVC005 17/17 Q1009 NOSIG
02:30
I
17 °C 6 km 700 ft 360° 360° 0 kt METAR LFRH 210030Z AUTO 00000KT 6000 SCT002 OVC007 17/17 Q1008 BECMG 32010KT
02:00
I
17 °C 9 km 800 ft Var Var 1 kt METAR LFRH 210000Z AUTO VRB01KT 9000 FEW003 OVC008 17/17 Q1008 NOSIG
01:30
I
17 °C 10 km+ 900 ft 060° 060° 2 kt METAR LFRH 202330Z AUTO 06002KT 9999 OVC009 17/17 Q1008 NOSIG
01:00
M
17 °C 10 km+ 1.100 ft 360° 360° 0 kt METAR LFRH 202300Z AUTO 00000KT 9999 OVC011 17/16 Q1008 BECMG BKN020
00:30
M
16 °C 10 km+ 1.100 ft Var Var 2 kt METAR LFRH 202230Z AUTO VRB02KT 9999 BKN011 16/16 Q1008 BECMG BKN020
00:00
I
17 °C 10 km+ 800 ft Var Var 2 kt METAR LFRH 202200Z AUTO VRB02KT 9999 BKN008 17/16 Q1008 TEMPO 2000 RADZ BKN004 BKN015CB

20 luglio 2024

Tempo Codice Tempo meteorologico Temp. Vista Base nuvolosa Vento METAR/SPECI
23:30
M
16 °C 10 km+ 1.300 ft 310° 310° 3 kt METAR LFRH 202130Z AUTO 31003KT 9999 BKN013 BKN042 16/16 Q1008 TEMPO 2000 RADZ BKN004 BKN015CB
23:00
V
17 °C 10 km+ 4.500 ft 260° 260° 3 kt METAR LFRH 202100Z AUTO 26003KT 9999 FEW027 BKN045 17/16 Q1008 TEMPO 2000 RADZ BKN004 BKN015CB
22:30
M
17 °C 10 km+ 2.700 ft 230° 230° 4 kt METAR LFRH 202030Z AUTO 23004KT 9999 FEW012 BKN027 BKN032 17/17 Q1007 TEMPO 2000 RADZ BKN004 BKN015CB
22:00
M
17 °C 10 km+ 2.300 ft 260° 260° 4 kt METAR LFRH 202000Z AUTO 26004KT 9999 FEW013/// BKN023/// BKN068/// ///TCU 17/17 Q1007 TEMPO 2000 RADZ BKN004 BKN015CB
21:30
M
18 °C 10 km+ 2.400 ft 260° 260° 4 kt METAR LFRH 201930Z AUTO 26004KT 9999 FEW017/// BKN024/// BKN029/// ///TCU 18/17 Q1007 TEMPO 2000 RADZ BKN004 BKN015CB
21:00
M
18 °C 10 km+ 2.200 ft 250° 250° 6 kt METAR LFRH 201900Z AUTO 25006KT 9999 FEW006/// BKN022/// BKN038/// ///CB 18/18 Q1007 TEMPO 2000 RADZ BKN004 BKN015CB
20:30
L
19 °C 10 km+ 400 ft 250° 250° 6 kt METAR LFRH 201830Z AUTO 25006KT 220V290 9999 -DZ BKN004/// OVC013/// ///TCU 19/18 Q1007 TEMPO 2000 RADZ BKN004 BKN015CB
20:00
L
19 °C 3,4 km 300 ft 220° 220° 7 kt METAR LFRH 201800Z AUTO 22007KT 200V260 3400 -RA BR BKN003/// OVC008/// ///TCU 19/18 Q1007 TEMPO 2000 RADZ BKN004 BKN015CB
19:30
I
19 °C 2 km 500 ft 200° 200° 7 kt METAR LFRH 201730Z AUTO 20007KT 9999 2000 BKN005/// BKN046/// OVC120/// ///CB 19/18 Q1007 TEMPO 2000 RADZ
19:00
V
19 °C 8 km 7.800 ft 110° 110° 5 kt METAR LFRH 201700Z AUTO 11005KT 8000 -RA SCT005/// SCT020/// BKN078/// ///CB 19/18 Q1006 TEMPO 2000 RADZ BKN005 BKN015CB BECMG 32010KT
18:30
I
19 °C 10 km+ 500 ft 210° 210° 8 kt METAR LFRH 201630Z AUTO 21008KT 9999 -RA BKN005/// BKN013/// BKN027/// ///CB 19/18 Q1007 TEMPO 2000 RADZ BECMG 32010KT
18:00
L
19 °C 10 km+ 300 ft 210° 210° 10 kt METAR LFRH 201600Z AUTO 21010KT 9999 OVC003/// ///CB 19/18 Q1007 TEMPO 2000 RADZ BKN005 BKN015CB
17:30
I
19 °C 6 km 500 ft 210° 210° 10 kt METAR LFRH 201530Z AUTO 21010KT 6000 -RA BKN005/// BKN013/// BKN029/// ///CB 19/19 Q1007 TEMPO 2000 RADZ BKN010CB
17:00
I
20 °C 10 km+ 500 ft 200° 200° 10 kt METAR LFRH 201500Z AUTO 20010KT 9999 -RADZ BKN005/// OVC010/// ///TCU 20/19 Q1007 TEMPO 2000 RADZ BKN010CB
16:30
I
0 °C 10 km+ 500 ft 200° 200° 13 kt METAR LFRH 201430Z AUTO 20013KT 170V230 9999 BKN005/// OVC009/// ///CB ///// Q1008 TEMPO 2000 RADZ BKN010CB
16:00
I
20 °C 10 km+ 600 ft 190° 190° 11 kt METAR LFRH 201400Z AUTO 19011KT 9999 -RA OVC006/// //////CB 20/19 Q1008 TEMPO 2000 RADZ BKN010CB
15:30
I
20 °C 10 km+ 600 ft 190° 190° 12 kt METAR LFRH 201330Z AUTO 19012KT 9999 BKN006/// OVC017/// ///TCU 20/19 Q1008 TEMPO 2000 RADZ BKN010CB
15:00
I
20 °C 10 km+ 700 ft 190° 190° 11 kt METAR LFRH 201300Z AUTO 19011KT 9999 BKN007 BKN012 OVC020 20/19 Q1008 TEMPO 2000 RADZ BKN005 BKN015CB
14:30
I
20 °C 10 km+ 700 ft 190° 190° 12 kt METAR LFRH 201230Z AUTO 19012KT 9999 BKN007 BKN016 OVC021 20/19 Q1009 TEMPO 2000 RADZ BKN005 BKN015CB
14:00
I
20 °C 3,2 km 600 ft 180° 180° 12 kt METAR LFRH 201200Z AUTO 18012KT 9999 3200 BKN006 OVC013 20/19 Q1009 TEMPO 2000 RADZ BKN005 BKN015CB
13:30
I
20 °C 10 km+ 600 ft 180° 180° 12 kt METAR LFRH 201130Z AUTO 18012KT 160V220 9999 BKN006 OVC011 20/18 Q1009 TEMPO 2000 RADZ BKN005 BKN015CB
13:00
I
20 °C 10 km+ 700 ft 180° 180° 13 kt METAR LFRH 201100Z AUTO 18013KT 9999 BKN007 OVC012 20/18 Q1009 TEMPO 2000 -RADZ
12:30
I
20 °C 10 km+ 800 ft 180° 180° 9 kt METAR LFRH 201030Z AUTO 18009KT 140V210 9999 BKN008 OVC015 20/18 Q1010 TEMPO 2000 -RADZ
12:00
I
20 °C 10 km+ 800 ft 160° 160° 11 kt METAR LFRH 201000Z AUTO 16011KT 9999 OVC008 20/18 Q1010 NOSIG
11:30
I
20 °C 10 km+ 700 ft 180° 180° 10 kt METAR LFRH 200930Z AUTO 18010KT 9999 OVC007 20/18 Q1010 BECMG OVC015
11:00
I
19 °C 10 km+ 700 ft 200° 200° 9 kt METAR LFRH 200900Z AUTO 20009KT 160V230 9999 OVC007 19/18 Q1010 BECMG OVC015
10:30
I
19 °C 10 km+ 500 ft 190° 190° 6 kt METAR LFRH 200830Z AUTO 19006KT 160V220 9999 BKN005 OVC009 19/18 Q1010 BECMG OVC015
10:00
I
19 °C 3,2 km 600 ft 180° 180° 7 kt METAR LFRH 200800Z AUTO 18007KT 9999 3200 OVC006 19/18 Q1011 BECMG OVC015
09:30
I
19 °C 10 km+ 600 ft 180° 180° 7 kt METAR LFRH 200730Z AUTO 18007KT 9999 OVC006 19/18 Q1011 BECMG OVC015
09:00
I
18 °C 10 km+ 600 ft 180° 180° 6 kt METAR LFRH 200700Z AUTO 18006KT 150V210 9999 OVC006 18/17 Q1011 BECMG OVC015
08:30
I
18 °C 10 km+ 700 ft 190° 190° 5 kt METAR LFRH 200630Z AUTO 19005KT 9999 OVC007 18/17 Q1011 BECMG OVC015
08:00
I
18 °C 10 km+ 700 ft 190° 190° 5 kt METAR LFRH 200600Z AUTO 19005KT 9999 BKN007 BKN012 OVC049 18/17 Q1011 BECMG OVC015
07:30
I
18 °C 10 km+ 800 ft 160° 160° 4 kt METAR LFRH 200530Z AUTO 16004KT 9999 BKN008 OVC012 18/17 Q1011 BECMG OVC015
07:00
I
18 °C 10 km+ 900 ft 180° 180° 4 kt METAR LFRH 200500Z AUTO 18004KT 9999 OVC009 18/17 Q1012 NOSIG
06:30
I
18 °C 10 km+ 900 ft 220° 220° 5 kt METAR LFRH 200430Z AUTO 22005KT 9999 OVC009 18/17 Q1012 NOSIG
06:00
M
18 °C 10 km+ 1.200 ft 190° 190° 4 kt METAR LFRH 200400Z AUTO 19004KT 9999 OVC012 18/17 Q1012 TEMPO 0600 FG BECMG OVC008
05:30
M
18 °C 10 km+ 1.100 ft 200° 200° 4 kt METAR LFRH 200330Z AUTO 20004KT 9999 OVC011 18/17 Q1012 TEMPO 0600 FG BECMG OVC008
05:00
M
18 °C 10 km+ 1.300 ft 210° 210° 6 kt METAR LFRH 200300Z AUTO 21006KT 9999 OVC013 18/17 Q1013 TEMPO 0600 FG OVC002
04:30
M
18 °C 10 km+ 1.400 ft 200° 200° 4 kt METAR LFRH 200230Z AUTO 20004KT 9999 OVC014 18/17 Q1013 TEMPO 0600 FG OVC002
04:00
M
18 °C 10 km+ 1.600 ft 220° 220° 5 kt METAR LFRH 200200Z AUTO 22005KT 9999 OVC016 18/17 Q1013 TEMPO 0600 FG OVC002
03:30
M
18 °C 10 km+ 1.600 ft 210° 210° 4 kt METAR LFRH 200130Z AUTO 21004KT 9999 FEW010 OVC016 18/17 Q1014 TEMPO 0600 FG OVC002
03:00
M
18 °C 10 km+ 1.200 ft 250° 250° 6 kt METAR LFRH 200100Z AUTO 25006KT 9999 OVC012 18/17 Q1014 TEMPO 3000 BR BKN004
02:30
M
18 °C 10 km+ 1.200 ft 250° 250° 5 kt METAR LFRH 200030Z AUTO 25005KT 9999 SCT005 OVC012 18/17 Q1014 TEMPO 3000 BR BKN004
02:00
I
18 °C 10 km+ 800 ft 250° 250° 5 kt METAR LFRH 200000Z AUTO 25005KT 9999 SCT004 BKN008 OVC012 18/17 Q1015 TEMPO 3000 BR BKN004
01:30
L
18 °C 7 km 400 ft 250° 250° 6 kt METAR LFRH 192330Z AUTO 25006KT 7000 BKN004 OVC009 18/17 Q1015 TEMPO 3000 BR
01:00
I
18 °C 10 km+ 600 ft 250° 250° 6 kt METAR LFRH 192300Z AUTO 25006KT 9999 BKN006 OVC010 18/17 Q1015 TEMPO 3000 BR BKN004
00:30
I
18 °C 10 km+ 700 ft 260° 260° 7 kt METAR LFRH 192230Z AUTO 26007KT 230V290 9999 OVC007 18/17 Q1015 TEMPO 3000 BR BKN004
00:00
I
18 °C 10 km+ 600 ft 270° 270° 7 kt METAR LFRH 192200Z AUTO 27007KT 230V290 9999 OVC006 18/17 Q1016 TEMPO 3000 BR BKN004

19 luglio 2024

Tempo Codice Tempo meteorologico Temp. Vista Base nuvolosa Vento METAR/SPECI
23:30
I
18 °C 10 km+ 700 ft 260° 260° 5 kt METAR LFRH 192130Z AUTO 26005KT 9999 OVC007 18/17 Q1016 TEMPO 3000 BR BKN004
23:00
I
18 °C 10 km+ 700 ft 260° 260° 9 kt METAR LFRH 192100Z AUTO 26009KT 9999 OVC007 18/17 Q1016 NOSIG
22:30
I
18 °C 10 km+ 800 ft 260° 260° 8 kt METAR LFRH 192030Z AUTO 26008KT 9999 OVC008 18/17 Q1016 NOSIG
22:00
I
18 °C 10 km+ 800 ft 260° 260° 9 kt METAR LFRH 192000Z AUTO 26009KT 9999 BKN008 18/17 Q1016 TEMPO SCT007
21:30
V
19 °C 10 km+ - 250° 250° 9 kt METAR LFRH 191930Z AUTO 25009KT 9999 SCT007 19/17 Q1016 BECMG OVC008
21:00
V
19 °C 10 km+ - 250° 250° 10 kt METAR LFRH 191900Z AUTO 25010KT 9999 SCT007 19/17 Q1016 NOSIG
20:30
V
19 °C 10 km+ - 250° 250° 10 kt METAR LFRH 191830Z AUTO 25010KT 9999 FEW008 19/17 Q1016 NOSIG
20:00
I
19 °C 10 km+ 700 ft 250° 250° 11 kt METAR LFRH 191800Z AUTO 25011KT 9999 BKN007 19/17 Q1016 BECMG SCT007
19:30
V
20 °C 10 km+ - 240° 240° 12 kt METAR LFRH 191730Z AUTO 24012KT 9999 SCT007 20/17 Q1017 NOSIG
19:00
I
20 °C 10 km+ 700 ft 250° 250° 13 kt METAR LFRH 191700Z AUTO 25013KT 9999 BKN007 20/17 Q1017 BECMG NSC
17:30
V
21 °C 10 km+ - 250° 250° 14 kt METAR LFRH 191530Z AUTO 25014KT CAVOK 21/17 Q1017 NOSIG
17:00
V
21 °C 10 km+ - 250° 250° 14 kt METAR LFRH 191500Z AUTO 25014KT 9999 FEW011 21/17 Q1018 NOSIG
16:30
V
21 °C 10 km+ - 250° 250° 12 kt METAR LFRH 191430Z AUTO 25012KT CAVOK 21/16 Q1018 NOSIG
16:00
V
21 °C 10 km+ - 250° 250° 14 kt METAR LFRH 191400Z AUTO 25014KT CAVOK 21/17 Q1018 NOSIG
15:30
V
21 °C 10 km+ - 250° 250° 15 kt METAR LFRH 191330Z AUTO 25015KT CAVOK 21/17 Q1018 NOSIG
15:00
V
21 °C 10 km+ - 240° 240° 13 kt METAR LFRH 191300Z AUTO 24013KT CAVOK 21/16 Q1018 NOSIG
14:30
V
22 °C 10 km+ - 250° 250° 13 kt METAR LFRH 191230Z AUTO 25013KT CAVOK 22/17 Q1018 NOSIG
14:00
V
22 °C 10 km+ - 250° 250° 11 kt METAR LFRH 191200Z AUTO 25011KT CAVOK 22/16 Q1018 NOSIG
13:30
V
22 °C 10 km+ - 240° 240° 11 kt METAR LFRH 191130Z AUTO 24011KT CAVOK 22/17 Q1018 NOSIG
13:00
V
21 °C 10 km+ - 240° 240° 10 kt METAR LFRH 191100Z AUTO 24010KT CAVOK 21/17 Q1018 NOSIG
12:30
V
21 °C 10 km+ - 250° 250° 12 kt METAR LFRH 191030Z AUTO 25012KT CAVOK 21/17 Q1018 NOSIG
12:00
V
21 °C 10 km+ - 250° 250° 11 kt METAR LFRH 191000Z AUTO 25011KT CAVOK 21/17 Q1018 NOSIG
11:30
V
20 °C 10 km+ - 240° 240° 10 kt METAR LFRH 190930Z AUTO 24010KT CAVOK 20/17 Q1018 NOSIG
11:00
V
20 °C 10 km+ - 240° 240° 8 kt METAR LFRH 190900Z AUTO 24008KT CAVOK 20/17 Q1018 NOSIG
10:30
V
20 °C 10 km+ - 240° 240° 6 kt METAR LFRH 190830Z AUTO 24006KT 210V270 CAVOK 20/17 Q1018 NOSIG
10:00
V
19 °C 10 km+ - 220° 220° 3 kt METAR LFRH 190800Z AUTO 22003KT 180V290 CAVOK 19/17 Q1018 NOSIG
09:30
V
18 °C 10 km+ - Var Var 2 kt METAR LFRH 190730Z AUTO VRB02KT CAVOK 18/17 Q1018 NOSIG
09:00
V
17 °C 10 km+ - 230° 230° 3 kt METAR LFRH 190700Z AUTO 23003KT CAVOK 17/16 Q1018 NOSIG
08:30
V
16 °C 10 km+ - 260° 260° 2 kt METAR LFRH 190630Z AUTO 26002KT CAVOK 16/15 Q1018 NOSIG
08:00
V
15 °C 9 km - 280° 280° 2 kt METAR LFRH 190600Z AUTO 28002KT 9000 NSC 15/15 Q1018 TEMPO 3000 BR
Segnala modifiche